Terminal Aerodrome Forecast
Issued by NWS

Home | Current Version | Previous Version | Text Only | Print | Product List | Glossary On
Versions: 1 2 3 4 5 6 7 8 9 10 11 12 13 14 15 16 17 18 19 20 21
526
FTUS43 KMPX 162339
TAFRNH
TAF
KRNH 162339Z 1700/1724 VRB03KT P6SM SCT050 OVC250
      TEMPO 1700/1704 4SM -FZDZ BR SCT007 BKN020
     FM170400 VRB03KT 6SM -FZDZSN BR OVC011
     FM170800 36004KT 4SM BR OVC015
     FM171500 33004KT P6SM BKN020
     FM171800 30004KT P6SM SCT090=

USA.gov is the U.S. government's official web portal to all federal, state and local government web resources and services.